sensor_id;sensor_type;location;lat;lon;timestamp;temperature;humidity
3488;DHT22;38546;48.170;11.724;2022-07-29T00:01:22;21.30;99.90
3488;DHT22;38546;48.170;11.724;2022-07-29T00:04:11;21.30;99.90
3488;DHT22;38546;48.170;11.724;2022-07-29T00:07:02;21.50;99.90
3488;DHT22;38546;48.170;11.724;2022-07-29T00:09:52;21.30;99.90
3488;DHT22;38546;48.170;11.724;2022-07-29T00:12:42;21.30;99.90
3488;DHT22;38546;48.170;11.724;2022-07-29T00:15:31;21.20;99.90
3488;DHT22;38546;48.170;11.724;2022-07-29T00:18:20;21.10;99.90
3488;DHT22;38546;48.170;11.724;2022-07-29T00:21:10;21.10;99.90
3488;DHT22;38546;48.170;11.724;2022-07-29T00:23:59;21.00;99.90
3488;DHT22;38546;48.170;11.724;2022-07-29T00:26:48;21.00;99.90
3488;DHT22;38546;48.170;11.724;2022-07-29T00:29:38;21.00;99.90
3488;DHT22;38546;48.170;11.724;2022-07-29T00:32:27;20.90;99.90
3488;DHT22;38546;48.170;11.724;2022-07-29T00:35:16;20.90;99.90
3488;DHT22;38546;48.170;11.724;2022-07-29T00:38:24;20.90;99.90
3488;DHT22;38546;48.170;11.724;2022-07-29T00:41:14;20.80;99.90
3488;DHT22;38546;48.170;11.724;2022-07-29T00:44:04;20.80;99.90
3488;DHT22;38546;48.170;11.724;2022-07-29T00:46:53;20.90;99.90
3488;DHT22;38546;48.170;11.724;2022-07-29T00:49:43;20.90;99.90
3488;DHT22;38546;48.170;11.724;2022-07-29T00:52:33;20.80;99.90
3488;DHT22;38546;48.170;11.724;2022-07-29T00:55:25;20.70;99.90
3488;DHT22;38546;48.170;11.724;2022-07-29T00:58:14;20.60;99.90
3488;DHT22;38546;48.170;11.724;2022-07-29T01:01:03;20.60;99.90
3488;DHT22;38546;48.170;11.724;2022-07-29T01:03:52;20.60;99.90
3488;DHT22;38546;48.170;11.724;2022-07-29T01:06:42;20.50;99.90
3488;DHT22;38546;48.170;11.724;2022-07-29T01:09:32;20.40;99.90
3488;DHT22;38546;48.170;11.724;2022-07-29T01:12:27;20.50;99.90
3488;DHT22;38546;48.170;11.724;2022-07-29T01:15:18;20.40;99.90
3488;DHT22;38546;48.170;11.724;2022-07-29T01:18:16;20.40;99.90
3488;DHT22;38546;48.170;11.724;2022-07-29T01:29:50;20.30;99.90
3488;DHT22;38546;48.170;11.724;2022-07-29T01:32:47;20.30;99.90
3488;DHT22;38546;48.170;11.724;2022-07-29T01:35:40;20.20;99.90
3488;DHT22;38546;48.170;11.724;2022-07-29T01:38:31;20.20;99.90
3488;DHT22;38546;48.170;11.724;2022-07-29T01:41:21;20.20;99.90
3488;DHT22;38546;48.170;11.724;2022-07-29T01:44:17;20.20;99.90
3488;DHT22;38546;48.170;11.724;2022-07-29T01:47:14;20.20;99.90
3488;DHT22;38546;48.170;11.724;2022-07-29T01:50:08;20.10;99.90
3488;DHT22;38546;48.170;11.724;2022-07-29T01:53:01;20.00;99.90
3488;DHT22;38546;48.170;11.724;2022-07-29T01:55:52;20.00;99.90
3488;DHT22;38546;48.170;11.724;2022-07-29T01:58:44;19.90;99.90
3488;DHT22;38546;48.170;11.724;2022-07-29T02:01:35;19.90;99.90
3488;DHT22;38546;48.170;11.724;2022-07-29T02:04:27;19.90;99.90
3488;DHT22;38546;48.170;11.724;2022-07-29T02:07:21;19.90;99.90
3488;DHT22;38546;48.170;11.724;2022-07-29T02:10:12;19.90;99.90
3488;DHT22;38546;48.170;11.724;2022-07-29T02:13:03;19.90;99.90
3488;DHT22;38546;48.170;11.724;2022-07-29T02:15:54;19.90;99.90
3488;DHT22;38546;48.170;11.724;2022-07-29T02:18:45;19.90;99.90
3488;DHT22;38546;48.170;11.724;2022-07-29T02:21:36;19.90;99.90
3488;DHT22;38546;48.170;11.724;2022-07-29T02:24:27;19.90;99.90
3488;DHT22;38546;48.170;11.724;2022-07-29T02:27:19;19.90;99.90
3488;DHT22;38546;48.170;11.724;2022-07-29T02:30:09;19.80;99.90
3488;DHT22;38546;48.170;11.724;2022-07-29T02:32:59;19.80;99.90
3488;DHT22;38546;48.170;11.724;2022-07-29T02:35:51;19.80;99.90
3488;DHT22;38546;48.170;11.724;2022-07-29T02:38:42;19.80;99.90
3488;DHT22;38546;48.170;11.724;2022-07-29T02:41:45;19.80;99.90
3488;DHT22;38546;48.170;11.724;2022-07-29T02:44:36;19.80;99.90
3488;DHT22;38546;48.170;11.724;2022-07-29T02:47:47;19.80;99.90
3488;DHT22;38546;48.170;11.724;2022-07-29T02:50:44;19.80;99.90
3488;DHT22;38546;48.170;11.724;2022-07-29T02:53:39;19.80;99.90
3488;DHT22;38546;48.170;11.724;2022-07-29T02:56:33;19.70;99.90
3488;DHT22;38546;48.170;11.724;2022-07-29T02:59:27;19.70;99.90
3488;DHT22;38546;48.170;11.724;2022-07-29T03:02:17;19.70;99.90
3488;DHT22;38546;48.170;11.724;2022-07-29T03:05:15;19.70;99.90
3488;DHT22;38546;48.170;11.724;2022-07-29T03:08:09;19.70;99.90
3488;DHT22;38546;48.170;11.724;2022-07-29T03:11:00;19.70;99.90
3488;DHT22;38546;48.170;11.724;2022-07-29T03:13:50;19.70;99.90
3488;DHT22;38546;48.170;11.724;2022-07-29T03:16:40;19.70;99.90
3488;DHT22;38546;48.170;11.724;2022-07-29T03:19:31;19.60;99.90
3488;DHT22;38546;48.170;11.724;2022-07-29T03:22:20;19.50;99.90
3488;DHT22;38546;48.170;11.724;2022-07-29T03:25:15;19.50;99.90
3488;DHT22;38546;48.170;11.724;2022-07-29T03:28:05;19.40;99.90
3488;DHT22;38546;48.170;11.724;2022-07-29T03:30:55;19.40;99.90
3488;DHT22;38546;48.170;11.724;2022-07-29T03:33:44;19.40;99.90
3488;DHT22;38546;48.170;11.724;2022-07-29T03:36:33;19.30;99.90
3488;DHT22;38546;48.170;11.724;2022-07-29T03:39:27;19.30;99.90
3488;DHT22;38546;48.170;11.724;2022-07-29T03:42:20;19.20;99.90
3488;DHT22;38546;48.170;11.724;2022-07-29T03:45:15;19.10;99.90
3488;DHT22;38546;48.170;11.724;2022-07-29T03:48:10;19.00;99.90
3488;DHT22;38546;48.170;11.724;2022-07-29T03:51:02;18.90;99.90
3488;DHT22;38546;48.170;11.724;2022-07-29T03:53:51;18.90;99.90
3488;DHT22;38546;48.170;11.724;2022-07-29T03:56:43;18.90;99.90
3488;DHT22;38546;48.170;11.724;2022-07-29T03:59:37;18.80;99.90
3488;DHT22;38546;48.170;11.724;2022-07-29T04:02:27;18.70;99.90
3488;DHT22;38546;48.170;11.724;2022-07-29T04:05:17;18.70;99.90
3488;DHT22;38546;48.170;11.724;2022-07-29T04:08:07;18.60;99.90
3488;DHT22;38546;48.170;11.724;2022-07-29T04:10:57;18.60;99.90
3488;DHT22;38546;48.170;11.724;2022-07-29T04:13:47;18.60;99.90
3488;DHT22;38546;48.170;11.724;2022-07-29T04:16:36;18.60;99.90
3488;DHT22;38546;48.170;11.724;2022-07-29T04:19:25;18.60;99.90
3488;DHT22;38546;48.170;11.724;2022-07-29T04:22:15;18.60;99.90
3488;DHT22;38546;48.170;11.724;2022-07-29T04:25:04;18.60;99.90
3488;DHT22;38546;48.170;11.724;2022-07-29T04:27:54;18.60;99.90
3488;DHT22;38546;48.170;11.724;2022-07-29T04:30:52;18.60;99.90
3488;DHT22;38546;48.170;11.724;2022-07-29T04:33:41;18.60;99.90
3488;DHT22;38546;48.170;11.724;2022-07-29T04:36:30;18.60;99.90
3488;DHT22;38546;48.170;11.724;2022-07-29T04:39:20;18.60;99.90
3488;DHT22;38546;48.170;11.724;2022-07-29T04:42:10;18.60;99.90
3488;DHT22;38546;48.170;11.724;2022-07-29T04:44:59;18.60;99.90
3488;DHT22;38546;48.170;11.724;2022-07-29T04:47:48;18.60;99.90
3488;DHT22;38546;48.170;11.724;2022-07-29T04:50:39;18.60;99.90
3488;DHT22;38546;48.170;11.724;2022-07-29T04:53:28;18.60;99.90
3488;DHT22;38546;48.170;11.724;2022-07-29T04:56:18;18.60;99.90
3488;DHT22;38546;48.170;11.724;2022-07-29T04:59:07;18.60;99.90
3488;DHT22;38546;48.170;11.724;2022-07-29T05:01:57;18.70;99.90
3488;DHT22;38546;48.170;11.724;2022-07-29T05:04:46;18.80;99.90
3488;DHT22;38546;48.170;11.724;2022-07-29T05:07:35;18.90;99.90
3488;DHT22;38546;48.170;11.724;2022-07-29T05:10:24;19.00;99.90
3488;DHT22;38546;48.170;11.724;2022-07-29T05:13:14;19.20;99.90
3488;DHT22;38546;48.170;11.724;2022-07-29T05:16:03;19.30;99.90
3488;DHT22;38546;48.170;11.724;2022-07-29T05:18:53;19.40;99.90
3488;DHT22;38546;48.170;11.724;2022-07-29T05:21:44;19.50;99.90
3488;DHT22;38546;48.170;11.724;2022-07-29T05:24:34;19.70;99.90
3488;DHT22;38546;48.170;11.724;2022-07-29T05:27:23;19.80;99.90
3488;DHT22;38546;48.170;11.724;2022-07-29T05:30:12;19.90;99.90
3488;DHT22;38546;48.170;11.724;2022-07-29T05:33:02;20.00;99.90
3488;DHT22;38546;48.170;11.724;2022-07-29T05:35:51;20.10;99.90
3488;DHT22;38546;48.170;11.724;2022-07-29T05:38:41;20.20;99.90
3488;DHT22;38546;48.170;11.724;2022-07-29T05:41:32;20.20;99.90
3488;DHT22;38546;48.170;11.724;2022-07-29T05:44:21;20.20;99.90
3488;DHT22;38546;48.170;11.724;2022-07-29T05:47:10;20.20;99.90
3488;DHT22;38546;48.170;11.724;2022-07-29T05:50:00;20.30;99.90
3488;DHT22;38546;48.170;11.724;2022-07-29T05:52:50;20.30;99.90
3488;DHT22;38546;48.170;11.724;2022-07-29T05:55:39;20.40;99.90
3488;DHT22;38546;48.170;11.724;2022-07-29T05:58:28;20.50;99.90
3488;DHT22;38546;48.170;11.724;2022-07-29T06:01:18;20.50;99.90
3488;DHT22;38546;48.170;11.724;2022-07-29T06:04:07;20.60;99.90
3488;DHT22;38546;48.170;11.724;2022-07-29T06:06:57;20.70;99.90
3488;DHT22;38546;48.170;11.724;2022-07-29T06:09:46;20.80;99.90
3488;DHT22;38546;48.170;11.724;2022-07-29T06:12:36;20.80;99.90
3488;DHT22;38546;48.170;11.724;2022-07-29T06:15:26;20.90;99.90
3488;DHT22;38546;48.170;11.724;2022-07-29T06:18:16;21.10;99.90
3488;DHT22;38546;48.170;11.724;2022-07-29T06:21:09;21.30;99.90
3488;DHT22;38546;48.170;11.724;2022-07-29T06:23:59;21.40;99.90
3488;DHT22;38546;48.170;11.724;2022-07-29T06:26:49;21.50;99.90
3488;DHT22;38546;48.170;11.724;2022-07-29T06:29:38;21.60;99.90
3488;DHT22;38546;48.170;11.724;2022-07-29T06:32:28;21.70;99.90
3488;DHT22;38546;48.170;11.724;2022-07-29T06:35:17;21.90;99.90
3488;DHT22;38546;48.170;11.724;2022-07-29T06:38:07;22.20;99.90
3488;DHT22;38546;48.170;11.724;2022-07-29T06:40:56;22.30;99.90
3488;DHT22;38546;48.170;11.724;2022-07-29T06:43:49;22.50;99.90
3488;DHT22;38546;48.170;11.724;2022-07-29T06:46:40;23.00;99.90
3488;DHT22;38546;48.170;11.724;2022-07-29T06:49:30;23.20;99.90
3488;DHT22;38546;48.170;11.724;2022-07-29T06:52:19;23.10;99.90
3488;DHT22;38546;48.170;11.724;2022-07-29T06:55:09;23.30;99.90
3488;DHT22;38546;48.170;11.724;2022-07-29T06:57:59;23.60;99.90
3488;DHT22;38546;48.170;11.724;2022-07-29T07:00:48;23.90;99.90
3488;DHT22;38546;48.170;11.724;2022-07-29T07:03:38;24.10;99.90
3488;DHT22;38546;48.170;11.724;2022-07-29T07:06:27;23.90;99.90
3488;DHT22;38546;48.170;11.724;2022-07-29T07:09:16;24.00;99.90
3488;DHT22;38546;48.170;11.724;2022-07-29T07:12:06;24.00;99.90
3488;DHT22;38546;48.170;11.724;2022-07-29T07:14:55;24.20;99.90
3488;DHT22;38546;48.170;11.724;2022-07-29T07:17:45;24.50;99.90
3488;DHT22;38546;48.170;11.724;2022-07-29T07:20:35;24.60;99.90
3488;DHT22;38546;48.170;11.724;2022-07-29T07:23:24;24.90;99.90
3488;DHT22;38546;48.170;11.724;2022-07-29T07:26:14;24.80;99.90
3488;DHT22;38546;48.170;11.724;2022-07-29T07:29:03;25.00;99.90
3488;DHT22;38546;48.170;11.724;2022-07-29T07:31:52;24.90;99.90
3488;DHT22;38546;48.170;11.724;2022-07-29T07:34:44;24.70;99.90
3488;DHT22;38546;48.170;11.724;2022-07-29T07:37:34;24.80;99.90
3488;DHT22;38546;48.170;11.724;2022-07-29T07:40:23;24.90;99.90
3488;DHT22;38546;48.170;11.724;2022-07-29T07:43:13;25.00;99.90
3488;DHT22;38546;48.170;11.724;2022-07-29T07:46:02;25.00;99.90
3488;DHT22;38546;48.170;11.724;2022-07-29T07:48:52;25.10;99.90
3488;DHT22;38546;48.170;11.724;2022-07-29T07:51:43;25.30;99.90
3488;DHT22;38546;48.170;11.724;2022-07-29T07:54:32;25.50;99.90
3488;DHT22;38546;48.170;11.724;2022-07-29T07:57:21;25.20;99.90
3488;DHT22;38546;48.170;11.724;2022-07-29T08:00:12;25.30;99.90
3488;DHT22;38546;48.170;11.724;2022-07-29T08:03:02;25.50;99.90
3488;DHT22;38546;48.170;11.724;2022-07-29T08:05:51;25.80;99.90
3488;DHT22;38546;48.170;11.724;2022-07-29T08:08:43;25.80;99.90
3488;DHT22;38546;48.170;11.724;2022-07-29T08:11:32;25.80;99.90
3488;DHT22;38546;48.170;11.724;2022-07-29T08:14:21;25.90;99.90
3488;DHT22;38546;48.170;11.724;2022-07-29T08:17:10;26.00;99.30
3488;DHT22;38546;48.170;11.724;2022-07-29T08:20:00;26.00;99.20
3488;DHT22;38546;48.170;11.724;2022-07-29T08:22:50;26.10;99.20
3488;DHT22;38546;48.170;11.724;2022-07-29T08:25:40;26.20;98.30
3488;DHT22;38546;48.170;11.724;2022-07-29T08:28:29;26.20;98.70
3488;DHT22;38546;48.170;11.724;2022-07-29T08:31:19;26.10;98.80
3488;DHT22;38546;48.170;11.724;2022-07-29T08:34:09;26.10;97.70
3488;DHT22;38546;48.170;11.724;2022-07-29T08:36:59;26.10;98.40
3488;DHT22;38546;48.170;11.724;2022-07-29T08:39:48;26.30;97.40
3488;DHT22;38546;48.170;11.724;2022-07-29T08:42:38;26.40;96.80
3488;DHT22;38546;48.170;11.724;2022-07-29T08:45:29;26.40;96.50
3488;DHT22;38546;48.170;11.724;2022-07-29T08:48:21;26.40;96.70
3488;DHT22;38546;48.170;11.724;2022-07-29T08:51:17;26.60;96.40
3488;DHT22;38546;48.170;11.724;2022-07-29T08:54:11;26.70;95.80
3488;DHT22;38546;48.170;11.724;2022-07-29T08:57:05;26.80;96.80
3488;DHT22;38546;48.170;11.724;2022-07-29T08:59:59;27.00;95.30
3488;DHT22;38546;48.170;11.724;2022-07-29T09:02:56;26.90;95.20
3488;DHT22;38546;48.170;11.724;2022-07-29T09:05:46;27.00;95.10
3488;DHT22;38546;48.170;11.724;2022-07-29T09:08:36;27.10;95.60
3488;DHT22;38546;48.170;11.724;2022-07-29T09:11:26;27.40;95.60
3488;DHT22;38546;48.170;11.724;2022-07-29T09:14:16;27.50;94.00
3488;DHT22;38546;48.170;11.724;2022-07-29T09:17:06;27.30;94.10
3488;DHT22;38546;48.170;11.724;2022-07-29T09:20:09;27.20;94.90
3488;DHT22;38546;48.170;11.724;2022-07-29T09:23:07;27.30;94.90
3488;DHT22;38546;48.170;11.724;2022-07-29T09:26:05;27.40;95.70
3488;DHT22;38546;48.170;11.724;2022-07-29T09:28:55;27.70;94.40
3488;DHT22;38546;48.170;11.724;2022-07-29T09:31:47;27.60;94.50
3488;DHT22;38546;48.170;11.724;2022-07-29T09:34:38;27.50;94.40
3488;DHT22;38546;48.170;11.724;2022-07-29T09:37:28;27.60;94.70
3488;DHT22;38546;48.170;11.724;2022-07-29T09:40:27;27.60;95.00
3488;DHT22;38546;48.170;11.724;2022-07-29T09:43:17;27.90;94.80
3488;DHT22;38546;48.170;11.724;2022-07-29T09:46:11;28.00;94.70
3488;DHT22;38546;48.170;11.724;2022-07-29T09:49:12;28.10;95.50
3488;DHT22;38546;48.170;11.724;2022-07-29T09:52:07;28.40;95.10
3488;DHT22;38546;48.170;11.724;2022-07-29T09:55:08;28.60;94.40
3488;DHT22;38546;48.170;11.724;2022-07-29T09:58:18;28.90;94.10
3488;DHT22;38546;48.170;11.724;2022-07-29T10:01:09;29.00;93.70
3488;DHT22;38546;48.170;11.724;2022-07-29T10:03:59;28.80;93.80
3488;DHT22;38546;48.170;11.724;2022-07-29T10:07:00;28.90;93.40
3488;DHT22;38546;48.170;11.724;2022-07-29T10:09:55;28.90;93.00
3488;DHT22;38546;48.170;11.724;2022-07-29T10:13:04;28.60;93.70
3488;DHT22;38546;48.170;11.724;2022-07-29T10:15:55;28.50;93.10
3488;DHT22;38546;48.170;11.724;2022-07-29T10:18:45;28.20;93.90
3488;DHT22;38546;48.170;11.724;2022-07-29T10:21:35;28.20;93.70
3488;DHT22;38546;48.170;11.724;2022-07-29T10:24:27;27.70;94.20
3488;DHT22;38546;48.170;11.724;2022-07-29T10:27:18;27.50;94.30
3488;DHT22;38546;48.170;11.724;2022-07-29T10:30:08;27.40;94.40
3488;DHT22;38546;48.170;11.724;2022-07-29T10:33:24;27.30;94.90
3488;DHT22;38546;48.170;11.724;2022-07-29T10:37:07;27.40;94.50
3488;DHT22;38546;48.170;11.724;2022-07-29T10:40:51;27.30;94.90
3488;DHT22;38546;48.170;11.724;2022-07-29T10:44:09;27.10;94.80
3488;DHT22;38546;48.170;11.724;2022-07-29T10:47:03;27.00;94.60
3488;DHT22;38546;48.170;11.724;2022-07-29T10:50:00;26.90;94.90
3488;DHT22;38546;48.170;11.724;2022-07-29T10:52:55;26.90;95.30
3488;DHT22;38546;48.170;11.724;2022-07-29T10:55:47;27.10;94.50
3488;DHT22;38546;48.170;11.724;2022-07-29T10:58:39;26.80;94.80
3488;DHT22;38546;48.170;11.724;2022-07-29T11:01:30;26.80;95.30
3488;DHT22;38546;48.170;11.724;2022-07-29T11:05:13;26.90;95.50
3488;DHT22;38546;48.170;11.724;2022-07-29T11:08:27;27.00;95.10
3488;DHT22;38546;48.170;11.724;2022-07-29T11:11:35;27.20;95.30
3488;DHT22;38546;48.170;11.724;2022-07-29T11:14:55;27.80;93.80
3488;DHT22;38546;48.170;11.724;2022-07-29T11:18:07;28.00;93.10
3488;DHT22;38546;48.170;11.724;2022-07-29T11:20:57;28.30;92.70
3488;DHT22;38546;48.170;11.724;2022-07-29T11:23:46;28.30;92.90
3488;DHT22;38546;48.170;11.724;2022-07-29T11:26:36;28.40;92.00
3488;DHT22;38546;48.170;11.724;2022-07-29T11:29:26;28.60;90.40
3488;DHT22;38546;48.170;11.724;2022-07-29T11:32:17;28.70;91.00
3488;DHT22;38546;48.170;11.724;2022-07-29T11:35:19;28.80;91.10
3488;DHT22;38546;48.170;11.724;2022-07-29T11:44:15;29.20;91.80
3488;DHT22;38546;48.170;11.724;2022-07-29T11:47:04;29.40;91.10
3488;DHT22;38546;48.170;11.724;2022-07-29T11:50:00;29.60;91.50
3488;DHT22;38546;48.170;11.724;2022-07-29T11:52:49;29.80;90.70
3488;DHT22;38546;48.170;11.724;2022-07-29T11:55:40;29.70;90.40
3488;DHT22;38546;48.170;11.724;2022-07-29T11:58:30;29.60;90.40
3488;DHT22;38546;48.170;11.724;2022-07-29T12:01:20;29.50;90.60
3488;DHT22;38546;48.170;11.724;2022-07-29T12:04:13;29.40;90.10
3488;DHT22;38546;48.170;11.724;2022-07-29T12:07:02;29.30;89.30
3488;DHT22;38546;48.170;11.724;2022-07-29T12:09:52;29.10;89.40
3488;DHT22;38546;48.170;11.724;2022-07-29T12:12:42;29.10;88.80
3488;DHT22;38546;48.170;11.724;2022-07-29T12:15:31;29.20;88.30
3488;DHT22;38546;48.170;11.724;2022-07-29T12:18:21;29.10;85.60
3488;DHT22;38546;48.170;11.724;2022-07-29T12:21:10;28.90;87.30
3488;DHT22;38546;48.170;11.724;2022-07-29T12:23:59;29.00;87.00
3488;DHT22;38546;48.170;11.724;2022-07-29T12:26:53;29.00;87.20
3488;DHT22;38546;48.170;11.724;2022-07-29T12:30:05;29.00;86.30
3488;DHT22;38546;48.170;11.724;2022-07-29T12:32:56;29.00;88.20
3488;DHT22;38546;48.170;11.724;2022-07-29T12:35:48;28.80;87.40
3488;DHT22;38546;48.170;11.724;2022-07-29T12:38:42;29.00;86.90
3488;DHT22;38546;48.170;11.724;2022-07-29T12:41:32;29.00;86.80
3488;DHT22;38546;48.170;11.724;2022-07-29T12:44:21;29.00;87.30
3488;DHT22;38546;48.170;11.724;2022-07-29T12:47:10;29.00;87.30
3488;DHT22;38546;48.170;11.724;2022-07-29T12:50:11;28.90;88.70
3488;DHT22;38546;48.170;11.724;2022-07-29T12:53:11;28.70;88.40
3488;DHT22;38546;48.170;11.724;2022-07-29T12:56:03;28.90;89.10
3488;DHT22;38546;48.170;11.724;2022-07-29T12:58:53;28.90;88.20
3488;DHT22;38546;48.170;11.724;2022-07-29T13:01:44;28.90;88.30
3488;DHT22;38546;48.170;11.724;2022-07-29T13:04:35;28.70;88.80
3488;DHT22;38546;48.170;11.724;2022-07-29T13:07:27;29.00;87.50
3488;DHT22;38546;48.170;11.724;2022-07-29T13:10:20;28.80;88.00
3488;DHT22;38546;48.170;11.724;2022-07-29T13:13:14;29.00;86.90
3488;DHT22;38546;48.170;11.724;2022-07-29T13:16:07;28.60;88.10
3488;DHT22;38546;48.170;11.724;2022-07-29T13:19:10;28.40;89.10
3488;DHT22;38546;48.170;11.724;2022-07-29T13:22:00;28.10;90.10
3488;DHT22;38546;48.170;11.724;2022-07-29T13:24:59;28.00;90.00
3488;DHT22;38546;48.170;11.724;2022-07-29T13:27:52;27.70;90.20
3488;DHT22;38546;48.170;11.724;2022-07-29T13:30:43;27.90;90.10
3488;DHT22;38546;48.170;11.724;2022-07-29T13:33:33;27.90;90.10
3488;DHT22;38546;48.170;11.724;2022-07-29T13:36:22;27.80;90.20
3488;DHT22;38546;48.170;11.724;2022-07-29T13:39:11;27.60;90.70
3488;DHT22;38546;48.170;11.724;2022-07-29T13:42:01;27.60;90.50
3488;DHT22;38546;48.170;11.724;2022-07-29T13:44:51;27.40;90.80
3488;DHT22;38546;48.170;11.724;2022-07-29T13:47:40;27.40;90.10
3488;DHT22;38546;48.170;11.724;2022-07-29T13:50:29;27.20;90.30
3488;DHT22;38546;48.170;11.724;2022-07-29T13:53:19;27.20;90.30
3488;DHT22;38546;48.170;11.724;2022-07-29T13:56:08;27.20;90.10
3488;DHT22;38546;48.170;11.724;2022-07-29T13:58:58;27.10;90.30
3488;DHT22;38546;48.170;11.724;2022-07-29T14:01:47;27.20;90.10
3488;DHT22;38546;48.170;11.724;2022-07-29T14:04:37;27.20;90.80
3488;DHT22;38546;48.170;11.724;2022-07-29T14:07:27;27.40;90.50
3488;DHT22;38546;48.170;11.724;2022-07-29T14:10:16;27.60;89.80
3488;DHT22;38546;48.170;11.724;2022-07-29T14:13:06;27.70;89.30
3488;DHT22;38546;48.170;11.724;2022-07-29T14:15:55;27.60;89.90
3488;DHT22;38546;48.170;11.724;2022-07-29T14:18:44;27.60;90.00
3488;DHT22;38546;48.170;11.724;2022-07-29T14:21:35;27.60;90.20
3488;DHT22;38546;48.170;11.724;2022-07-29T14:24:24;27.50;90.30
3488;DHT22;38546;48.170;11.724;2022-07-29T14:27:13;27.60;90.40
3488;DHT22;38546;48.170;11.724;2022-07-29T14:30:03;27.70;90.40
3488;DHT22;38546;48.170;11.724;2022-07-29T14:32:54;27.80;89.20
3488;DHT22;38546;48.170;11.724;2022-07-29T14:35:44;27.60;90.30
3488;DHT22;38546;48.170;11.724;2022-07-29T14:38:34;27.60;90.30
3488;DHT22;38546;48.170;11.724;2022-07-29T14:41:23;27.40;90.40
3488;DHT22;38546;48.170;11.724;2022-07-29T14:44:13;27.20;90.60
3488;DHT22;38546;48.170;11.724;2022-07-29T14:47:02;27.20;90.70
3488;DHT22;38546;48.170;11.724;2022-07-29T14:49:51;27.10;90.50
3488;DHT22;38546;48.170;11.724;2022-07-29T14:52:40;27.20;91.40
3488;DHT22;38546;48.170;11.724;2022-07-29T14:55:30;27.20;91.20
3488;DHT22;38546;48.170;11.724;2022-07-29T14:58:19;27.20;91.20
3488;DHT22;38546;48.170;11.724;2022-07-29T15:01:11;27.10;91.00
3488;DHT22;38546;48.170;11.724;2022-07-29T15:04:01;27.00;90.90
3488;DHT22;38546;48.170;11.724;2022-07-29T15:06:50;27.00;90.60
3488;DHT22;38546;48.170;11.724;2022-07-29T15:09:40;27.00;90.70
3488;DHT22;38546;48.170;11.724;2022-07-29T15:12:29;26.90;90.90
3488;DHT22;38546;48.170;11.724;2022-07-29T15:15:19;26.90;90.90
3488;DHT22;38546;48.170;11.724;2022-07-29T15:18:09;27.10;90.00
3488;DHT22;38546;48.170;11.724;2022-07-29T15:20:58;27.10;90.50
3488;DHT22;38546;48.170;11.724;2022-07-29T15:23:49;27.00;90.90
3488;DHT22;38546;48.170;11.724;2022-07-29T15:26:39;26.90;91.00
3488;DHT22;38546;48.170;11.724;2022-07-29T15:29:31;26.80;91.00
3488;DHT22;38546;48.170;11.724;2022-07-29T15:32:21;26.80;91.20
3488;DHT22;38546;48.170;11.724;2022-07-29T15:35:11;26.60;91.50
3488;DHT22;38546;48.170;11.724;2022-07-29T15:38:01;26.50;91.50
3488;DHT22;38546;48.170;11.724;2022-07-29T15:40:50;26.50;91.90
3488;DHT22;38546;48.170;11.724;2022-07-29T15:43:43;26.40;92.40
3488;DHT22;38546;48.170;11.724;2022-07-29T15:46:36;26.10;92.40
3488;DHT22;38546;48.170;11.724;2022-07-29T15:49:44;26.20;92.70
3488;DHT22;38546;48.170;11.724;2022-07-29T15:52:33;26.10;93.10
3488;DHT22;38546;48.170;11.724;2022-07-29T15:55:23;26.00;93.50
3488;DHT22;38546;48.170;11.724;2022-07-29T15:58:12;26.10;93.70
3488;DHT22;38546;48.170;11.724;2022-07-29T16:01:01;26.10;94.00
3488;DHT22;38546;48.170;11.724;2022-07-29T16:03:51;25.80;94.40
3488;DHT22;38546;48.170;11.724;2022-07-29T16:06:40;25.80;94.90
3488;DHT22;38546;48.170;11.724;2022-07-29T16:09:30;25.50;95.50
3488;DHT22;38546;48.170;11.724;2022-07-29T16:12:19;25.30;96.00
3488;DHT22;38546;48.170;11.724;2022-07-29T16:15:09;25.10;96.60
3488;DHT22;38546;48.170;11.724;2022-07-29T16:17:59;25.40;96.30
3488;DHT22;38546;48.170;11.724;2022-07-29T16:20:48;25.30;96.70
3488;DHT22;38546;48.170;11.724;2022-07-29T16:23:41;25.40;96.50
3488;DHT22;38546;48.170;11.724;2022-07-29T16:26:31;25.20;96.40
3488;DHT22;38546;48.170;11.724;2022-07-29T16:29:20;24.90;96.70
3488;DHT22;38546;48.170;11.724;2022-07-29T16:32:09;25.00;97.10
3488;DHT22;38546;48.170;11.724;2022-07-29T16:34:58;24.80;97.70
3488;DHT22;38546;48.170;11.724;2022-07-29T16:37:50;24.60;99.90
3488;DHT22;38546;48.170;11.724;2022-07-29T16:40:38;24.10;99.90
3488;DHT22;38546;48.170;11.724;2022-07-29T16:43:27;23.70;99.90
3488;DHT22;38546;48.170;11.724;2022-07-29T16:46:17;23.60;99.90
3488;DHT22;38546;48.170;11.724;2022-07-29T16:49:05;23.40;99.90
3488;DHT22;38546;48.170;11.724;2022-07-29T16:51:54;23.40;99.90
3488;DHT22;38546;48.170;11.724;2022-07-29T16:54:43;23.30;99.90
3488;DHT22;38546;48.170;11.724;2022-07-29T16:57:32;23.50;99.90
3488;DHT22;38546;48.170;11.724;2022-07-29T17:00:22;23.40;99.90
3488;DHT22;38546;48.170;11.724;2022-07-29T17:03:11;23.50;99.90
3488;DHT22;38546;48.170;11.724;2022-07-29T17:06:00;23.60;99.90
3488;DHT22;38546;48.170;11.724;2022-07-29T17:08:49;23.70;99.90
3488;DHT22;38546;48.170;11.724;2022-07-29T17:11:38;23.80;99.90
3488;DHT22;38546;48.170;11.724;2022-07-29T17:14:29;24.00;99.90
3488;DHT22;38546;48.170;11.724;2022-07-29T17:17:19;24.20;99.90
3488;DHT22;38546;48.170;11.724;2022-07-29T17:20:08;24.40;99.00
3488;DHT22;38546;48.170;11.724;2022-07-29T17:22:57;24.30;96.40
3488;DHT22;38546;48.170;11.724;2022-07-29T17:25:46;24.20;95.70
3488;DHT22;38546;48.170;11.724;2022-07-29T17:28:35;24.10;95.80
3488;DHT22;38546;48.170;11.724;2022-07-29T17:31:25;24.00;97.90
3488;DHT22;38546;48.170;11.724;2022-07-29T17:34:13;23.70;99.00
3488;DHT22;38546;48.170;11.724;2022-07-29T17:37:04;23.60;99.50
3488;DHT22;38546;48.170;11.724;2022-07-29T17:39:54;23.50;98.40
3488;DHT22;38546;48.170;11.724;2022-07-29T17:42:43;23.60;99.40
3488;DHT22;38546;48.170;11.724;2022-07-29T17:45:32;23.60;99.40
3488;DHT22;38546;48.170;11.724;2022-07-29T17:48:21;23.50;99.60
3488;DHT22;38546;48.170;11.724;2022-07-29T17:51:10;23.40;99.70
3488;DHT22;38546;48.170;11.724;2022-07-29T17:53:59;23.50;99.10
3488;DHT22;38546;48.170;11.724;2022-07-29T17:56:48;23.70;98.90
3488;DHT22;38546;48.170;11.724;2022-07-29T17:59:37;23.50;99.10
3488;DHT22;38546;48.170;11.724;2022-07-29T18:02:26;23.00;98.60
3488;DHT22;38546;48.170;11.724;2022-07-29T18:05:15;22.80;98.50
3488;DHT22;38546;48.170;11.724;2022-07-29T18:08:05;22.50;98.80
3488;DHT22;38546;48.170;11.724;2022-07-29T18:10:54;22.30;99.40
3488;DHT22;38546;48.170;11.724;2022-07-29T18:13:43;22.10;99.70
3488;DHT22;38546;48.170;11.724;2022-07-29T18:16:32;21.70;99.90
3488;DHT22;38546;48.170;11.724;2022-07-29T18:19:21;21.50;99.90